Aeroporto :
LOGIN :

Iscrizione | Disclaimer

   EN    FR    IT 

 










Sommario :    VFR   VFR Marginale   IFR   IFR Intensivo   IFR Molto Intensivo
Visibilità : 
Base nubi : 
>= 8 km
>= 3000ft
5 / 8 km
1000 / 3000 ft
1500m / 5 km
500 / 1000 ft
800 / 1500m
200 / 500 ft
< 800m
< 200 ft
Simboli :   Temporali  Nebbia  Neve Forte  Precipitazioni Forti  Vento > 20 kt
SIGMETs :   Varie  Temporali  Ghiacco  Turbolenza  Onda orograficha  Ceneri Vulcaniche







- Altitudine del aeroporto : 47 ft
- Codice IATA : BDS


LIBR - Casale Arpt. Brindisi

ULTIMO METAR :
  • 210220Z 29008KT 9999 SCT035 10/08 Q1024

METARs OBSOLETI :
  • 210150Z 32009KT 9999 SCT035 12/07 Q1024
  • 210120Z 32010KT 9999 SCT035 12/06 Q1024
  • 210050Z 32007KT 9999 BKN035 12/07 Q1024
  • 210020Z 31009KT 9999 BKN030 11/09 Q1024
  • 202350Z 30008KT 9999 BKN030 11/08 Q1024

TAF TAF LIBR
Valido dal 21 a 00 ore il 22 a 00 ore UTC


202300Z 2100/2124 34009KT CAVOK
Nessun NOTAM noto per questo aeroporto.



MetMap, La meteo Aeronautica in un colpo d'occhio ! - Copyright ORBIFLY Dicembre 2007 - Disclaimer

ORBIFLY MET'MAP TEAM :

Programmazione e sviluppo : Alexandra Zaïnal
Concezione e sviluppo : Baudouin d'Aumeries
Co-Programmazione e sviluppo : Marc-Olivier Méhu
Supporto tecnico e logistico : Manuel Goepfert
Aiuto per la traduzione : Arnaldo La Scala

Contatto : metmap@orbifly.com




FONTI E CREDITI :

   NOAA